Airport ID:KO05
Update Time (UTC):23/09/2021 13:03
Wind Speed (Knots):2
Wind Direction (Magnetic):230
Temperature (°C):3
Dew Point (°C):0
Humidity (%):79
Altimeter (inHg):30.22
Density Altitude (Feet):
Visibility (Miles):9
Clouds (Hundreds of feet):###
Present Weather:
METAR:METAR KO05 231300Z AUTO 00000KT 9SM 04/M00 A3022 RMK A01

The data displayed is for advisory purposes only and is not to be used for flight planning or operations.